Cobble Hill, Canada
Current Conditions -  °F | °C
As of 4:00 AM on Monday 24 Nov 2014 (Local Time) from CYYJ Reporting Station
Overcast Overcast  
Wind Chill: 41°   Ceiling: 11000
Heat Index: 41°   Visibility: 20mi
Dew Point: 39°   Wind: 2mph
Humidity: 93%   Direction: 190°S
Pressure: 30.33"   Gusts: NA
Location:  48.68°N, 123.6°W
Report Text: CYYJ 241200Z 19002KT 20SM SCT048 OVC110 05/04 A3033 RMK SC3AC5 /SUNSHINE 070/ SLP270
Loading
Personal Weather Stations






























Interactive Weather Map New forecast layout! Learn more

10-Day Weather Forecast

Advertisements
Track Severe Weather on mobile